sensor_id;sensor_type;location;lat;lon;timestamp;pressure;altitude;pressure_sealevel;temperature;humidity
21203;BME280;10759;51.982;9.232;2023-03-20T00:01:58;100509.47;;;12.92;100.00
21203;BME280;10759;51.982;9.232;2023-03-20T00:04:26;100494.91;;;12.77;100.00
21203;BME280;10759;51.982;9.232;2023-03-20T00:06:55;100470.59;;;12.59;100.00
21203;BME280;10759;51.982;9.232;2023-03-20T00:09:23;100500.53;;;12.91;100.00
21203;BME280;10759;51.982;9.232;2023-03-20T00:11:53;100466.53;;;12.70;100.00
21203;BME280;10759;51.982;9.232;2023-03-20T00:14:22;100483.13;;;12.79;100.00
21203;BME280;10759;51.982;9.232;2023-03-20T00:16:51;100471.66;;;12.76;100.00
21203;BME280;10759;51.982;9.232;2023-03-20T00:19:21;100496.09;;;12.90;100.00
21203;BME280;10759;51.982;9.232;2023-03-20T00:21:50;100497.38;;;12.81;100.00
21203;BME280;10759;51.982;9.232;2023-03-20T00:24:19;100509.06;;;13.01;100.00
21203;BME280;10759;51.982;9.232;2023-03-20T00:26:48;100505.75;;;12.94;100.00
21203;BME280;10759;51.982;9.232;2023-03-20T00:29:20;100471.19;;;12.66;100.00
21203;BME280;10759;51.982;9.232;2023-03-20T00:31:49;100500.69;;;12.88;100.00
21203;BME280;10759;51.982;9.232;2023-03-20T00:34:20;100465.78;;;12.67;100.00
21203;BME280;10759;51.982;9.232;2023-03-20T00:36:49;100473.69;;;12.71;100.00
21203;BME280;10759;51.982;9.232;2023-03-20T00:39:17;100489.53;;;12.77;100.00
21203;BME280;10759;51.982;9.232;2023-03-20T00:41:47;100503.13;;;12.74;100.00
21203;BME280;10759;51.982;9.232;2023-03-20T00:44:23;100521.78;;;12.77;100.00
21203;BME280;10759;51.982;9.232;2023-03-20T00:46:57;100501.84;;;12.62;100.00
21203;BME280;10759;51.982;9.232;2023-03-20T00:49:28;100523.25;;;12.84;100.00
21203;BME280;10759;51.982;9.232;2023-03-20T00:51:56;100478.19;;;12.50;100.00
21203;BME280;10759;51.982;9.232;2023-03-20T00:54:24;100505.75;;;12.55;100.00
21203;BME280;10759;51.982;9.232;2023-03-20T00:56:55;100498.78;;;12.51;100.00
21203;BME280;10759;51.982;9.232;2023-03-20T00:59:29;100528.94;;;12.37;100.00
21203;BME280;10759;51.982;9.232;2023-03-20T01:01:59;100524.41;;;12.37;100.00
21203;BME280;10759;51.982;9.232;2023-03-20T01:04:34;100529.59;;;12.42;100.00
21203;BME280;10759;51.982;9.232;2023-03-20T01:07:02;100510.66;;;12.45;99.02
21203;BME280;10759;51.982;9.232;2023-03-20T01:09:31;100484.59;;;12.27;97.56
21203;BME280;10759;51.982;9.232;2023-03-20T01:11:59;100532.56;;;12.36;98.21
21203;BME280;10759;51.982;9.232;2023-03-20T01:14:29;100507.25;;;11.99;100.00
21203;BME280;10759;51.982;9.232;2023-03-20T01:16:57;100543.38;;;12.34;98.94
21203;BME280;10759;51.982;9.232;2023-03-20T01:19:25;100535.34;;;12.33;97.89
21203;BME280;10759;51.982;9.232;2023-03-20T01:21:53;100533.56;;;12.33;97.80
21203;BME280;10759;51.982;9.232;2023-03-20T01:24:21;100544.44;;;12.30;97.86
21203;BME280;10759;51.982;9.232;2023-03-20T01:26:49;100521.88;;;11.92;97.22
21203;BME280;10759;51.982;9.232;2023-03-20T01:29:19;100536.84;;;11.97;97.35
21203;BME280;10759;51.982;9.232;2023-03-20T01:31:50;100541.50;;;11.94;97.56
21203;BME280;10759;51.982;9.232;2023-03-20T01:34:20;100552.72;;;12.03;96.73
21203;BME280;10759;51.982;9.232;2023-03-20T01:36:49;100472.88;;;11.41;97.00
21203;BME280;10759;51.982;9.232;2023-03-20T01:39:19;100553.84;;;11.98;96.13
21203;BME280;10759;51.982;9.232;2023-03-20T01:41:51;100551.88;;;11.79;96.22
21203;BME280;10759;51.982;9.232;2023-03-20T01:44:22;100535.25;;;11.48;97.24
21203;BME280;10759;51.982;9.232;2023-03-20T01:46:57;100531.72;;;11.69;96.62
21203;BME280;10759;51.982;9.232;2023-03-20T01:53:05;100533.25;;;11.53;96.95
21203;BME280;10759;51.982;9.232;2023-03-20T01:55:41;100538.44;;;11.57;97.17
21203;BME280;10759;51.982;9.232;2023-03-20T01:58:13;100523.72;;;11.44;97.04
21203;BME280;10759;51.982;9.232;2023-03-20T02:00:45;100541.66;;;11.44;97.68
21203;BME280;10759;51.982;9.232;2023-03-20T02:03:18;100510.41;;;11.19;97.70
21203;BME280;10759;51.982;9.232;2023-03-20T02:06:06;100543.50;;;11.42;97.46
21203;BME280;10759;51.982;9.232;2023-03-20T02:08:53;100570.25;;;11.45;97.56
21203;BME280;10759;51.982;9.232;2023-03-20T02:11:24;100574.97;;;11.38;97.51
21203;BME280;10759;51.982;9.232;2023-03-20T02:13:54;100576.94;;;11.33;98.53
21203;BME280;10759;51.982;9.232;2023-03-20T02:16:27;100577.81;;;11.33;98.80
21203;BME280;10759;51.982;9.232;2023-03-20T02:19:06;100563.44;;;11.12;99.66
21203;BME280;10759;51.982;9.232;2023-03-20T02:22:02;100575.84;;;11.15;100.00
21203;BME280;10759;51.982;9.232;2023-03-20T02:24:53;100563.44;;;11.12;100.00
21203;BME280;10759;51.982;9.232;2023-03-20T02:27:35;100581.25;;;11.13;99.92
21203;BME280;10759;51.982;9.232;2023-03-20T02:30:21;100587.50;;;11.14;99.99
21203;BME280;10759;51.982;9.232;2023-03-20T02:33:18;100584.59;;;11.20;99.53
21203;BME280;10759;51.982;9.232;2023-03-20T02:36:14;100586.09;;;11.04;100.00
21203;BME280;10759;51.982;9.232;2023-03-20T02:39:01;100568.91;;;10.84;100.00
21203;BME280;10759;51.982;9.232;2023-03-20T02:41:37;100514.75;;;10.74;100.00
21203;BME280;10759;51.982;9.232;2023-03-20T02:44:11;100578.75;;;11.09;100.00
21203;BME280;10759;51.982;9.232;2023-03-20T02:46:46;100578.28;;;11.21;100.00
21203;BME280;10759;51.982;9.232;2023-03-20T02:49:31;100580.56;;;11.32;100.00
21203;BME280;10759;51.982;9.232;2023-03-20T02:52:10;100568.22;;;11.28;100.00
21203;BME280;10759;51.982;9.232;2023-03-20T02:54:51;100560.44;;;11.20;100.00
21203;BME280;10759;51.982;9.232;2023-03-20T02:57:30;100534.19;;;11.05;100.00
21203;BME280;10759;51.982;9.232;2023-03-20T03:00:09;100562.34;;;11.16;100.00
21203;BME280;10759;51.982;9.232;2023-03-20T03:02:42;100569.53;;;11.16;100.00
21203;BME280;10759;51.982;9.232;2023-03-20T03:05:18;100574.91;;;11.16;100.00
21203;BME280;10759;51.982;9.232;2023-03-20T03:07:49;100568.28;;;11.25;100.00
21203;BME280;10759;51.982;9.232;2023-03-20T03:10:23;100527.28;;;10.98;100.00
21203;BME280;10759;51.982;9.232;2023-03-20T03:12:55;100564.03;;;11.19;100.00
21203;BME280;10759;51.982;9.232;2023-03-20T03:15:28;100563.81;;;11.02;100.00
21203;BME280;10759;51.982;9.232;2023-03-20T03:17:58;100525.25;;;10.81;100.00
21203;BME280;10759;51.982;9.232;2023-03-20T03:20:30;100566.91;;;11.14;100.00
21203;BME280;10759;51.982;9.232;2023-03-20T03:22:59;100567.44;;;11.24;100.00
21203;BME280;10759;51.982;9.232;2023-03-20T03:25:31;100535.69;;;11.12;100.00
21203;BME280;10759;51.982;9.232;2023-03-20T03:28:03;100570.13;;;11.24;100.00
21203;BME280;10759;51.982;9.232;2023-03-20T03:30:36;100569.28;;;11.22;100.00
21203;BME280;10759;51.982;9.232;2023-03-20T03:33:13;100571.63;;;11.31;100.00
21203;BME280;10759;51.982;9.232;2023-03-20T03:35:42;100575.56;;;11.23;100.00
21203;BME280;10759;51.982;9.232;2023-03-20T03:38:25;100583.22;;;11.32;100.00
21203;BME280;10759;51.982;9.232;2023-03-20T03:41:11;100560.63;;;11.15;100.00
21203;BME280;10759;51.982;9.232;2023-03-20T03:43:50;100557.94;;;11.15;100.00
21203;BME280;10759;51.982;9.232;2023-03-20T03:46:23;100578.84;;;11.29;100.00
21203;BME280;10759;51.982;9.232;2023-03-20T03:48:55;100580.50;;;11.33;100.00
21203;BME280;10759;51.982;9.232;2023-03-20T03:51:27;100570.81;;;11.29;100.00
21203;BME280;10759;51.982;9.232;2023-03-20T03:54:03;100578.69;;;11.34;100.00
21203;BME280;10759;51.982;9.232;2023-03-20T03:56:35;100563.00;;;11.23;100.00
21203;BME280;10759;51.982;9.232;2023-03-20T03:59:08;100554.97;;;11.23;100.00
21203;BME280;10759;51.982;9.232;2023-03-20T04:01:39;100584.00;;;11.35;100.00
21203;BME280;10759;51.982;9.232;2023-03-20T04:04:12;100547.09;;;11.18;100.00
21203;BME280;10759;51.982;9.232;2023-03-20T04:06:41;100565.22;;;11.35;100.00
21203;BME280;10759;51.982;9.232;2023-03-20T04:09:10;100550.50;;;11.22;100.00
21203;BME280;10759;51.982;9.232;2023-03-20T04:11:39;100572.44;;;11.10;100.00
21203;BME280;10759;51.982;9.232;2023-03-20T04:14:07;100551.88;;;11.10;100.00
21203;BME280;10759;51.982;9.232;2023-03-20T04:16:35;100561.25;;;11.22;100.00
21203;BME280;10759;51.982;9.232;2023-03-20T04:19:03;100563.22;;;11.17;100.00
21203;BME280;10759;51.982;9.232;2023-03-20T04:21:31;100548.28;;;11.10;100.00
21203;BME280;10759;51.982;9.232;2023-03-20T04:23:59;100559.81;;;11.13;100.00
21203;BME280;10759;51.982;9.232;2023-03-20T04:26:27;100540.03;;;11.16;100.00
21203;BME280;10759;51.982;9.232;2023-03-20T04:28:57;100556.34;;;11.33;100.00
21203;BME280;10759;51.982;9.232;2023-03-20T04:31:39;100531.88;;;11.19;100.00
21203;BME280;10759;51.982;9.232;2023-03-20T04:34:27;100542.38;;;11.25;100.00
21203;BME280;10759;51.982;9.232;2023-03-20T04:37:12;100531.47;;;11.30;100.00
21203;BME280;10759;51.982;9.232;2023-03-20T04:39:47;100552.84;;;11.31;100.00
21203;BME280;10759;51.982;9.232;2023-03-20T04:42:15;100522.47;;;11.07;100.00
21203;BME280;10759;51.982;9.232;2023-03-20T04:44:44;100532.63;;;11.23;100.00
21203;BME280;10759;51.982;9.232;2023-03-20T04:47:12;100545.22;;;11.21;100.00
21203;BME280;10759;51.982;9.232;2023-03-20T04:49:41;100497.69;;;10.77;100.00
21203;BME280;10759;51.982;9.232;2023-03-20T04:52:10;100545.16;;;11.22;100.00
21203;BME280;10759;51.982;9.232;2023-03-20T04:54:40;100535.09;;;11.05;100.00
21203;BME280;10759;51.982;9.232;2023-03-20T04:57:08;100534.91;;;11.33;100.00
21203;BME280;10759;51.982;9.232;2023-03-20T04:59:37;100510.28;;;11.22;100.00
21203;BME280;10759;51.982;9.232;2023-03-20T05:02:08;100535.41;;;11.43;100.00
21203;BME280;10759;51.982;9.232;2023-03-20T05:04:40;100548.09;;;11.39;100.00
21203;BME280;10759;51.982;9.232;2023-03-20T05:07:09;100540.91;;;11.40;100.00
21203;BME280;10759;51.982;9.232;2023-03-20T05:09:57;100484.06;;;11.07;100.00
21203;BME280;10759;51.982;9.232;2023-03-20T05:12:26;100539.66;;;11.49;100.00
21203;BME280;10759;51.982;9.232;2023-03-20T05:15:23;100531.91;;;11.41;100.00
21203;BME280;10759;51.982;9.232;2023-03-20T05:18:28;100546.31;;;11.38;100.00
21203;BME280;10759;51.982;9.232;2023-03-20T05:21:28;100536.41;;;11.41;100.00
21203;BME280;10759;51.982;9.232;2023-03-20T05:24:12;100546.53;;;11.56;100.00
21203;BME280;10759;51.982;9.232;2023-03-20T05:26:39;100495.00;;;11.24;100.00
21203;BME280;10759;51.982;9.232;2023-03-20T05:29:07;100544.84;;;11.53;100.00
21203;BME280;10759;51.982;9.232;2023-03-20T05:31:47;100508.19;;;11.07;100.00
21203;BME280;10759;51.982;9.232;2023-03-20T05:34:49;100542.13;;;11.31;100.00
21203;BME280;10759;51.982;9.232;2023-03-20T05:37:21;100478.63;;;10.85;100.00
21203;BME280;10759;51.982;9.232;2023-03-20T05:40:00;100528.59;;;11.11;100.00
21203;BME280;10759;51.982;9.232;2023-03-20T05:42:28;100537.47;;;11.13;100.00
21203;BME280;10759;51.982;9.232;2023-03-20T05:45:15;100515.81;;;10.94;100.00
21203;BME280;10759;51.982;9.232;2023-03-20T05:47:45;100542.13;;;11.08;100.00
21203;BME280;10759;51.982;9.232;2023-03-20T05:50:38;100525.34;;;11.03;100.00
21203;BME280;10759;51.982;9.232;2023-03-20T05:53:25;100548.56;;;11.27;100.00
21203;BME280;10759;51.982;9.232;2023-03-20T05:55:53;100549.25;;;11.32;100.00
21203;BME280;10759;51.982;9.232;2023-03-20T05:58:56;100480.03;;;10.95;100.00
21203;BME280;10759;51.982;9.232;2023-03-20T06:01:47;100554.03;;;11.01;100.00
21203;BME280;10759;51.982;9.232;2023-03-20T06:04:24;100564.50;;;11.07;100.00
21203;BME280;10759;51.982;9.232;2023-03-20T06:07:12;100492.31;;;10.77;99.83
21203;BME280;10759;51.982;9.232;2023-03-20T06:09:44;100568.69;;;10.90;100.00
21203;BME280;10759;51.982;9.232;2023-03-20T06:12:13;100565.19;;;10.88;100.00
21203;BME280;10759;51.982;9.232;2023-03-20T06:14:41;100574.19;;;11.11;99.53
21203;BME280;10759;51.982;9.232;2023-03-20T06:17:10;100585.34;;;11.00;100.00
21203;BME280;10759;51.982;9.232;2023-03-20T06:19:39;100477.41;;;10.45;98.43
21203;BME280;10759;51.982;9.232;2023-03-20T06:22:07;100584.22;;;11.06;97.19
21203;BME280;10759;51.982;9.232;2023-03-20T06:24:36;100564.75;;;11.01;96.44
21203;BME280;10759;51.982;9.232;2023-03-20T06:27:04;100580.84;;;11.01;96.22
21203;BME280;10759;51.982;9.232;2023-03-20T06:29:33;100588.31;;;11.16;96.21
21203;BME280;10759;51.982;9.232;2023-03-20T06:32:11;100594.16;;;11.27;94.63
21203;BME280;10759;51.982;9.232;2023-03-20T06:34:40;100590.88;;;11.19;94.86
21203;BME280;10759;51.982;9.232;2023-03-20T06:37:08;100587.72;;;11.08;93.16
21203;BME280;10759;51.982;9.232;2023-03-20T06:39:38;100592.47;;;11.00;93.94
21203;BME280;10759;51.982;9.232;2023-03-20T06:42:10;100518.47;;;10.45;93.28
21203;BME280;10759;51.982;9.232;2023-03-20T06:44:42;100581.16;;;10.91;92.51
21203;BME280;10759;51.982;9.232;2023-03-20T06:47:14;100585.78;;;10.88;93.65
21203;BME280;10759;51.982;9.232;2023-03-20T06:49:42;100579.44;;;10.90;93.20
21203;BME280;10759;51.982;9.232;2023-03-20T06:52:14;100589.50;;;11.07;92.36
21203;BME280;10759;51.982;9.232;2023-03-20T06:54:49;100545.81;;;10.80;93.24
21203;BME280;10759;51.982;9.232;2023-03-20T06:57:18;100592.88;;;10.89;93.96
21203;BME280;10759;51.982;9.232;2023-03-20T06:59:46;100587.50;;;10.89;92.88
21203;BME280;10759;51.982;9.232;2023-03-20T07:02:14;100587.72;;;11.08;92.77
21203;BME280;10759;51.982;9.232;2023-03-20T07:04:42;100578.06;;;11.02;92.64
21203;BME280;10759;51.982;9.232;2023-03-20T07:07:10;100587.72;;;11.08;92.02
21203;BME280;10759;51.982;9.232;2023-03-20T07:09:39;100566.81;;;10.92;92.99
21203;BME280;10759;51.982;9.232;2023-03-20T07:12:11;100574.06;;;10.90;93.82
21203;BME280;10759;51.982;9.232;2023-03-20T07:14:41;100592.97;;;11.11;92.78
21203;BME280;10759;51.982;9.232;2023-03-20T07:17:14;100593.25;;;11.27;91.68
21203;BME280;10759;51.982;9.232;2023-03-20T07:19:42;100599.53;;;11.02;92.74
21203;BME280;10759;51.982;9.232;2023-03-20T07:22:18;100600.56;;;11.23;91.38
21203;BME280;10759;51.982;9.232;2023-03-20T07:24:48;100610.47;;;11.21;91.87
21203;BME280;10759;51.982;9.232;2023-03-20T07:27:18;100587.28;;;11.20;91.81
21203;BME280;10759;51.982;9.232;2023-03-20T07:29:47;100612.34;;;10.94;94.01
21203;BME280;10759;51.982;9.232;2023-03-20T07:32:17;100623.00;;;11.21;92.59
21203;BME280;10759;51.982;9.232;2023-03-20T07:34:49;100607.97;;;11.16;92.54
21203;BME280;10759;51.982;9.232;2023-03-20T07:37:19;100624.03;;;11.16;93.25
21203;BME280;10759;51.982;9.232;2023-03-20T07:39:58;100599.19;;;10.88;93.93
21203;BME280;10759;51.982;9.232;2023-03-20T07:42:30;100629.69;;;11.09;94.37
21203;BME280;10759;51.982;9.232;2023-03-20T07:45:12;100631.28;;;10.89;95.22
21203;BME280;10759;51.982;9.232;2023-03-20T07:47:44;100633.06;;;10.90;95.85
21203;BME280;10759;51.982;9.232;2023-03-20T07:50:14;100632.94;;;10.93;96.29
21203;BME280;10759;51.982;9.232;2023-03-20T07:52:45;100632.69;;;11.00;95.65
21203;BME280;10759;51.982;9.232;2023-03-20T07:55:13;100635.28;;;11.03;95.59
21203;BME280;10759;51.982;9.232;2023-03-20T07:57:46;100641.38;;;11.08;94.33
21203;BME280;10759;51.982;9.232;2023-03-20T08:00:15;100639.78;;;11.27;93.23
21203;BME280;10759;51.982;9.232;2023-03-20T08:02:43;100626.41;;;11.26;92.05
21203;BME280;10759;51.982;9.232;2023-03-20T08:05:12;100640.47;;;11.32;92.94
21203;BME280;10759;51.982;9.232;2023-03-20T08:07:40;100635.53;;;11.45;90.57
21203;BME280;10759;51.982;9.232;2023-03-20T08:10:09;100629.91;;;11.51;91.50
21203;BME280;10759;51.982;9.232;2023-03-20T08:12:37;100630.50;;;11.36;91.82
21203;BME280;10759;51.982;9.232;2023-03-20T08:15:07;100614.09;;;11.20;90.12
21203;BME280;10759;51.982;9.232;2023-03-20T08:17:34;100631.72;;;11.51;88.23
21203;BME280;10759;51.982;9.232;2023-03-20T08:20:03;100633.75;;;11.44;88.86
21203;BME280;10759;51.982;9.232;2023-03-20T08:22:32;100644.81;;;11.60;86.88
21203;BME280;10759;51.982;9.232;2023-03-20T08:25:00;100619.28;;;11.48;84.68
21203;BME280;10759;51.982;9.232;2023-03-20T08:27:28;100627.81;;;11.59;85.39
21203;BME280;10759;51.982;9.232;2023-03-20T08:29:56;100625.06;;;11.61;85.28
21203;BME280;10759;51.982;9.232;2023-03-20T08:32:26;100646.19;;;11.70;82.97
21203;BME280;10759;51.982;9.232;2023-03-20T08:34:54;100640.34;;;11.35;82.55
21203;BME280;10759;51.982;9.232;2023-03-20T08:37:22;100653.91;;;11.56;82.49
21203;BME280;10759;51.982;9.232;2023-03-20T08:39:49;100657.28;;;11.61;81.97
21203;BME280;10759;51.982;9.232;2023-03-20T08:42:17;100662.88;;;11.55;82.41
21203;BME280;10759;51.982;9.232;2023-03-20T08:44:46;100664.00;;;11.73;80.58
21203;BME280;10759;51.982;9.232;2023-03-20T08:47:13;100662.19;;;11.73;81.58
21203;BME280;10759;51.982;9.232;2023-03-20T08:49:45;100644.41;;;11.47;81.05
21203;BME280;10759;51.982;9.232;2023-03-20T08:52:12;100674.78;;;11.71;81.37
21203;BME280;10759;51.982;9.232;2023-03-20T08:54:40;100671.41;;;11.66;79.98
21203;BME280;10759;51.982;9.232;2023-03-20T08:57:08;100674.09;;;11.43;78.60
21203;BME280;10759;51.982;9.232;2023-03-20T08:59:36;100677.13;;;11.32;80.29
21203;BME280;10759;51.982;9.232;2023-03-20T09:02:04;100667.66;;;11.22;79.67
21203;BME280;10759;51.982;9.232;2023-03-20T09:04:33;100676.97;;;11.36;80.16
21203;BME280;10759;51.982;9.232;2023-03-20T09:07:02;100679.69;;;11.60;79.93
21203;BME280;10759;51.982;9.232;2023-03-20T09:09:30;100674.72;;;11.73;78.38
21203;BME280;10759;51.982;9.232;2023-03-20T09:11:59;100679.44;;;11.91;78.53
21203;BME280;10759;51.982;9.232;2023-03-20T09:14:27;100670.13;;;11.76;77.72
21203;BME280;10759;51.982;9.232;2023-03-20T09:16:55;100672.53;;;11.84;77.81
21203;BME280;10759;51.982;9.232;2023-03-20T09:19:23;100676.09;;;11.85;79.01
21203;BME280;10759;51.982;9.232;2023-03-20T09:21:51;100646.06;;;11.73;78.92
21203;BME280;10759;51.982;9.232;2023-03-20T09:24:20;100649.41;;;11.56;78.42
21203;BME280;10759;51.982;9.232;2023-03-20T09:26:48;100674.56;;;11.77;77.71
21203;BME280;10759;51.982;9.232;2023-03-20T09:29:16;100557.31;;;11.32;77.70
21203;BME280;10759;51.982;9.232;2023-03-20T09:31:44;100667.66;;;12.17;76.61
21203;BME280;10759;51.982;9.232;2023-03-20T09:34:12;100663.13;;;11.96;76.28
21203;BME280;10759;51.982;9.232;2023-03-20T09:36:40;100667.09;;;12.09;75.94
21203;BME280;10759;51.982;9.232;2023-03-20T09:39:08;100663.66;;;12.28;75.25
21203;BME280;10759;51.982;9.232;2023-03-20T09:41:38;100661.16;;;12.45;75.90
21203;BME280;10759;51.982;9.232;2023-03-20T09:44:35;100658.91;;;12.56;76.86
21203;BME280;10759;51.982;9.232;2023-03-20T09:47:12;100657.06;;;12.99;73.65
21203;BME280;10759;51.982;9.232;2023-03-20T09:49:55;100650.06;;;12.75;73.12
21203;BME280;10759;51.982;9.232;2023-03-20T09:52:28;100655.16;;;12.60;71.94
21203;BME280;10759;51.982;9.232;2023-03-20T09:54:59;100683.13;;;12.77;73.30
21203;BME280;10759;51.982;9.232;2023-03-20T09:57:36;100683.28;;;12.52;69.30
21203;BME280;10759;51.982;9.232;2023-03-20T10:00:10;100670.66;;;12.54;71.60
21203;BME280;10759;51.982;9.232;2023-03-20T10:02:45;100669.28;;;12.65;71.04
21203;BME280;10759;51.982;9.232;2023-03-20T10:05:20;100671.56;;;12.75;71.83
21203;BME280;10759;51.982;9.232;2023-03-20T10:07:51;100663.59;;;12.51;70.54
21203;BME280;10759;51.982;9.232;2023-03-20T10:10:26;100665.03;;;12.60;70.03
21203;BME280;10759;51.982;9.232;2023-03-20T10:13:11;100654.28;;;12.38;70.15
21203;BME280;10759;51.982;9.232;2023-03-20T10:15:51;100666.84;;;12.59;69.70
21203;BME280;10759;51.982;9.232;2023-03-20T10:18:23;100655.03;;;12.41;71.76
21203;BME280;10759;51.982;9.232;2023-03-20T10:20:54;100667.13;;;12.53;68.66
21203;BME280;10759;51.982;9.232;2023-03-20T10:23:29;100666.78;;;12.39;70.87
21203;BME280;10759;51.982;9.232;2023-03-20T10:26:03;100663.47;;;12.54;68.66
21203;BME280;10759;51.982;9.232;2023-03-20T10:28:39;100628.72;;;12.06;69.28
21203;BME280;10759;51.982;9.232;2023-03-20T10:31:20;100664.53;;;12.50;68.55
21203;BME280;10759;51.982;9.232;2023-03-20T10:33:59;100674.66;;;12.65;68.93
21203;BME280;10759;51.982;9.232;2023-03-20T10:36:39;100674.66;;;12.65;70.09
21203;BME280;10759;51.982;9.232;2023-03-20T10:39:16;100605.38;;;12.30;68.99
21203;BME280;10759;51.982;9.232;2023-03-20T10:41:50;100672.34;;;12.99;68.37
21203;BME280;10759;51.982;9.232;2023-03-20T10:44:26;100662.19;;;13.05;67.53
21203;BME280;10759;51.982;9.232;2023-03-20T10:46:58;100649.97;;;13.39;66.54
21203;BME280;10759;51.982;9.232;2023-03-20T10:49:33;100664.25;;;13.60;64.64
21203;BME280;10759;51.982;9.232;2023-03-20T10:52:07;100660.94;;;13.74;65.00
21203;BME280;10759;51.982;9.232;2023-03-20T10:54:40;100548.63;;;12.58;61.90
21203;BME280;10759;51.982;9.232;2023-03-20T10:57:11;100660.03;;;13.14;63.13
21203;BME280;10759;51.982;9.232;2023-03-20T10:59:44;100643.22;;;13.29;62.03
21203;BME280;10759;51.982;9.232;2023-03-20T11:02:16;100658.25;;;13.53;63.16
21203;BME280;10759;51.982;9.232;2023-03-20T11:04:44;100644.75;;;13.55;63.21
21203;BME280;10759;51.982;9.232;2023-03-20T11:07:20;100634.94;;;13.73;62.01
21203;BME280;10759;51.982;9.232;2023-03-20T11:10:09;100640.78;;;13.43;65.08
21203;BME280;10759;51.982;9.232;2023-03-20T11:12:39;100646.34;;;13.78;62.48
21203;BME280;10759;51.982;9.232;2023-03-20T11:15:24;100648.16;;;13.40;58.15
21203;BME280;10759;51.982;9.232;2023-03-20T11:17:54;100627.06;;;13.29;56.53
21203;BME280;10759;51.982;9.232;2023-03-20T11:20:31;100637.44;;;13.38;57.87
21203;BME280;10759;51.982;9.232;2023-03-20T11:23:02;100635.75;;;13.15;57.29
21203;BME280;10759;51.982;9.232;2023-03-20T11:25:33;100627.06;;;13.08;56.26
21203;BME280;10759;51.982;9.232;2023-03-20T11:28:24;100627.88;;;13.10;57.08
21203;BME280;10759;51.982;9.232;2023-03-20T11:31:00;100638.78;;;13.07;57.62
21203;BME280;10759;51.982;9.232;2023-03-20T11:33:32;100633.56;;;13.04;58.20
21203;BME280;10759;51.982;9.232;2023-03-20T11:36:09;100631.91;;;13.21;61.18
21203;BME280;10759;51.982;9.232;2023-03-20T11:38:42;100624.66;;;13.23;54.94
21203;BME280;10759;51.982;9.232;2023-03-20T11:41:17;100606.38;;;13.10;55.32
21203;BME280;10759;51.982;9.232;2023-03-20T11:43:45;100603.16;;;13.02;58.07
21203;BME280;10759;51.982;9.232;2023-03-20T11:46:14;100519.38;;;12.50;56.24
21203;BME280;10759;51.982;9.232;2023-03-20T11:48:43;100599.56;;;12.81;56.04
21203;BME280;10759;51.982;9.232;2023-03-20T11:51:14;100589.09;;;12.96;57.24
21203;BME280;10759;51.982;9.232;2023-03-20T11:53:57;100598.22;;;13.32;55.99
21203;BME280;10759;51.982;9.232;2023-03-20T11:56:28;100603.25;;;13.40;55.64
21203;BME280;10759;51.982;9.232;2023-03-20T11:58:57;100602.59;;;13.15;53.10
21203;BME280;10759;51.982;9.232;2023-03-20T12:01:36;100599.38;;;13.27;52.42
21203;BME280;10759;51.982;9.232;2023-03-20T12:04:06;100599.19;;;13.50;52.58
21203;BME280;10759;51.982;9.232;2023-03-20T12:06:41;100590.88;;;13.36;52.04
21203;BME280;10759;51.982;9.232;2023-03-20T12:09:18;100494.09;;;12.75;52.89
21203;BME280;10759;51.982;9.232;2023-03-20T12:11:53;100582.03;;;13.72;53.85
21203;BME280;10759;51.982;9.232;2023-03-20T12:14:32;100484.41;;;12.91;52.25
21203;BME280;10759;51.982;9.232;2023-03-20T12:17:41;100586.44;;;13.35;51.67
21203;BME280;10759;51.982;9.232;2023-03-20T12:20:19;100557.06;;;13.49;53.48
21203;BME280;10759;51.982;9.232;2023-03-20T12:22:55;100565.00;;;13.52;51.84
21203;BME280;10759;51.982;9.232;2023-03-20T12:25:29;100537.03;;;13.36;51.16
21203;BME280;10759;51.982;9.232;2023-03-20T12:28:04;100559.59;;;13.34;52.00
21203;BME280;10759;51.982;9.232;2023-03-20T12:30:43;100572.34;;;13.68;50.71
21203;BME280;10759;51.982;9.232;2023-03-20T12:33:18;100559.25;;;13.79;49.74
21203;BME280;10759;51.982;9.232;2023-03-20T12:35:48;100574.19;;;14.04;50.87
21203;BME280;10759;51.982;9.232;2023-03-20T12:38:23;100537.53;;;13.82;49.14
21203;BME280;10759;51.982;9.232;2023-03-20T12:40:55;100565.44;;;13.81;49.53
21203;BME280;10759;51.982;9.232;2023-03-20T12:43:29;100575.38;;;13.98;49.74
21203;BME280;10759;51.982;9.232;2023-03-20T12:46:10;100562.94;;;13.58;48.17
21203;BME280;10759;51.982;9.232;2023-03-20T12:48:58;100455.59;;;12.74;48.44
21203;BME280;10759;51.982;9.232;2023-03-20T12:51:34;100565.59;;;13.20;48.54
21203;BME280;10759;51.982;9.232;2023-03-20T12:54:18;100487.47;;;12.63;48.91
21203;BME280;10759;51.982;9.232;2023-03-20T12:57:07;100584.91;;;13.29;49.70
21203;BME280;10759;51.982;9.232;2023-03-20T12:59:47;100567.75;;;13.11;49.75
21203;BME280;10759;51.982;9.232;2023-03-20T13:02:28;100573.47;;;13.24;48.18
21203;BME280;10759;51.982;9.232;2023-03-20T13:05:06;100565.34;;;13.05;49.08
21203;BME280;10759;51.982;9.232;2023-03-20T13:07:48;100574.03;;;13.12;50.05
21203;BME280;10759;51.982;9.232;2023-03-20T13:10:20;100580.94;;;13.18;50.35
21203;BME280;10759;51.982;9.232;2023-03-20T13:12:55;100581.13;;;13.34;51.50
21203;BME280;10759;51.982;9.232;2023-03-20T13:15:46;100572.03;;;13.16;50.07
21203;BME280;10759;51.982;9.232;2023-03-20T13:18:18;100569.22;;;13.39;49.95
21203;BME280;10759;51.982;9.232;2023-03-20T13:20:51;100564.84;;;13.37;48.55
21203;BME280;10759;51.982;9.232;2023-03-20T13:23:24;100563.31;;;13.50;50.01